F/V Barracuda II — FMIF — position and weather

sailwx.info

Track history (hours):
 
Tides and Currents Weather Stations Pressure Air Temp Water Temp Dewpoint Dewpoint Depression Visibility Wind Speed Wind Dir Waves Ship Positions

F/V Barracuda II

Last reported at 2015-Jan-29 13:33 UTC. Time now 2015-Jan-31 05:31 UTC.
Position N 43°23' E 004°03'.

Length 23 m.

Type: Fishing. MMSI: 228236800.

Date/timePositionNaut miles runAvg speedWind from/ knotsBaromVisibWave heightAir tempDewpointWater temp
2015-Jan-29 13:33N 43°23' E 004°03'4 4.1
2015-Jan-29 12:28N 43°21' E 004°09'2 2.5
2015-Jan-29 11:32N 43°20' E 004°12'5 3.3
2015-Jan-29 10:09N 43°18' E 004°17'2 3.9
2015-Jan-29 09:34N 43°17' E 004°20'5 4.2
2015-Jan-29 08:28N 43°17' E 004°27'1 0.7
2015-Jan-29 07:31N 43°17' E 004°28'4 4.1
2015-Jan-29 06:27N 43°17' E 004°22'4 4.0
2015-Jan-29 05:28N 43°19' E 004°17'4 3.9
2015-Jan-29 04:19N 43°21' E 004°11'3 4.1
2015-Jan-29 03:30N 43°22' E 004°07'7 7.2
2015-Jan-29 02:31N 43°29' E 004°05'4 0.1
2015-Jan-27 17:07N 43°32' E 004°08'10 2.3
2015-Jan-27 12:33N 43°22' E 004°07'4 4.1
2015-Jan-27 11:33N 43°20' E 004°12'2 1.7
2015-Jan-27 10:24N 43°20' E 004°15'4 4.2
2015-Jan-27 09:20N 43°18' E 004°21'5 3.8
2015-Jan-27 08:07N 43°16' E 004°26'21 1.3
2015-Jan-26 16:29N 43°32' E 004°08'7 6.8
2015-Jan-26 15:29N 43°27' E 004°03'3 2.9
2015-Jan-26 14:34N 43°24' E 004°02'4 3.8
2015-Jan-26 13:29N 43°22' E 004°06'4 4.0
2015-Jan-26 12:29N 43°20' E 004°11'3 2.4
2015-Jan-26 11:24N 43°20' E 004°15'4 3.9
2015-Jan-26 10:27N 43°18' E 004°19'4 4.1
2015-Jan-26 09:28N 43°17' E 004°25'4 3.8
2015-Jan-26 08:28N 43°16' E 004°30'3 1.9
2015-Jan-26 07:07N 43°16' E 004°26'7 4.0
2015-Jan-26 05:27N 43°18' E 004°17'8 4.0
2015-Jan-26 03:27N 43°22' E 004°07'7 7.5
2015-Jan-26 02:27N 43°29' E 004°06'  
2015-Jan-23 11:13N 43°28' E 004°01'4 3.5
2015-Jan-23 10:10N 43°24' E 004°01'2 3.7
2015-Jan-23 09:30N 43°23' E 004°04'4 4.0
2015-Jan-23 08:34N 43°21' E 004°09'2 1.8
2015-Jan-23 07:33N 43°21' E 004°12'4 4.0
2015-Jan-23 06:33N 43°19' E 004°16'1 0.9
2015-Jan-23 05:27N 43°18' E 004°17'4 4.0
2015-Jan-23 04:32N 43°20' E 004°12'4 4.0
2015-Jan-23 03:25N 43°22' E 004°07'5 6.4
2015-Jan-23 02:33N 43°28' E 004°06'2 0.2
2015-Jan-22 15:22N 43°27' E 004°09'7 7.6
2015-Jan-22 14:28N 43°21' E 004°13'7 3.8
2015-Jan-22 12:33N 43°17' E 004°22'5 3.7
2015-Jan-22 11:11N 43°15' E 004°28'2 2.7
2015-Jan-22 10:25N 43°13' E 004°29'3 3.0
2015-Jan-22 09:32N 43°13' E 004°33'4 2.9
2015-Jan-22 08:05N 43°17' E 004°30'2 2.5
2015-Jan-22 07:23N 43°17' E 004°28'3 3.9
2015-Jan-22 06:33N 43°17' E 004°23'5 4.2
2015-Jan-22 05:18N 43°19' E 004°17'3 4.0
2015-Jan-22 04:26N 43°20' E 004°13'3 3.9
2015-Jan-22 03:33N 43°22' E 004°08'6 6.2
2015-Jan-22 02:33N 43°28' E 004°06'5 0.4
2015-Jan-21 15:04N 43°24' E 004°10'4 6.1
2015-Jan-21 14:21N 43°21' E 004°14'4 4.0
2015-Jan-21 13:22N 43°18' E 004°17'3 4.0
2015-Jan-21 12:34N 43°17' E 004°22'5 4.1
2015-Jan-21 11:27N 43°14' E 004°27'3 3.0
2015-Jan-21 10:33N 43°12' E 004°29'4 3.2
2015-Jan-21 09:19N 43°15' E 004°33'3 3.3
2015-Jan-21 08:24N 43°17' E 004°30'3 2.8
2015-Jan-21 07:16N 43°17' E 004°26'4 4.4
2015-Jan-21 06:18N 43°17' E 004°20'19 1.1
2015-Jan-20 12:30N 43°26' E 003°56'8 8.2
2015-Jan-20 11:33N 43°22' E 003°47'2 1.9
2015-Jan-20 10:17N 43°24' E 003°50'3 4.2
2015-Jan-20 09:33N 43°26' E 003°53'3 2.4
2015-Jan-20 08:09N 43°25' E 003°57'2 2.3
2015-Jan-20 07:15N 43°26' E 003°55'4 3.5
2015-Jan-20 06:05N 43°23' E 003°51'16 1.2
2015-Jan-19 17:21N 43°32' E 004°08'0 0.0
2015-Jan-19 16:23N 43°32' E 004°08'  
Track history (hours):
 
Tides and Currents Weather Stations Pressure Air Temp Water Temp Dewpoint Dewpoint Depression Visibility Wind Speed Wind Dir Waves Ship Positions

F/V Barracuda II

Last reported at 2015-Jan-29 13:33 UTC. Time now 2015-Jan-31 05:31 UTC.
Position N 43°23' E 004°03'.

Length 23 m.

Type: Fishing. MMSI: 228236800.

Date/timePositionNaut miles runAvg speedWind from/ knotsBaromVisibWave heightAir tempDewpointWater temp
2015-Jan-29 13:33N 43°23' E 004°03'4 4.1
2015-Jan-29 12:28N 43°21' E 004°09'2 2.5
2015-Jan-29 11:32N 43°20' E 004°12'5 3.3
2015-Jan-29 10:09N 43°18' E 004°17'2 3.9
2015-Jan-29 09:34N 43°17' E 004°20'5 4.2
2015-Jan-29 08:28N 43°17' E 004°27'1 0.7
2015-Jan-29 07:31N 43°17' E 004°28'4 4.1
2015-Jan-29 06:27N 43°17' E 004°22'4 4.0
2015-Jan-29 05:28N 43°19' E 004°17'4 3.9
2015-Jan-29 04:19N 43°21' E 004°11'3 4.1
2015-Jan-29 03:30N 43°22' E 004°07'7 7.2
2015-Jan-29 02:31N 43°29' E 004°05'4 0.1
2015-Jan-27 17:07N 43°32' E 004°08'10 2.3
2015-Jan-27 12:33N 43°22' E 004°07'4 4.1
2015-Jan-27 11:33N 43°20' E 004°12'2 1.7
2015-Jan-27 10:24N 43°20' E 004°15'4 4.2
2015-Jan-27 09:20N 43°18' E 004°21'5 3.8
2015-Jan-27 08:07N 43°16' E 004°26'21 1.3
2015-Jan-26 16:29N 43°32' E 004°08'7 6.8
2015-Jan-26 15:29N 43°27' E 004°03'3 2.9
2015-Jan-26 14:34N 43°24' E 004°02'4 3.8
2015-Jan-26 13:29N 43°22' E 004°06'4 4.0
2015-Jan-26 12:29N 43°20' E 004°11'3 2.4
2015-Jan-26 11:24N 43°20' E 004°15'4 3.9
2015-Jan-26 10:27N 43°18' E 004°19'4 4.1
2015-Jan-26 09:28N 43°17' E 004°25'4 3.8
2015-Jan-26 08:28N 43°16' E 004°30'3 1.9
2015-Jan-26 07:07N 43°16' E 004°26'7 4.0
2015-Jan-26 05:27N 43°18' E 004°17'8 4.0
2015-Jan-26 03:27N 43°22' E 004°07'7 7.5
2015-Jan-26 02:27N 43°29' E 004°06'  
2015-Jan-23 11:13N 43°28' E 004°01'4 3.5
2015-Jan-23 10:10N 43°24' E 004°01'2 3.7
2015-Jan-23 09:30N 43°23' E 004°04'4 4.0
2015-Jan-23 08:34N 43°21' E 004°09'2 1.8
2015-Jan-23 07:33N 43°21' E 004°12'4 4.0
2015-Jan-23 06:33N 43°19' E 004°16'1 0.9
2015-Jan-23 05:27N 43°18' E 004°17'4 4.0
2015-Jan-23 04:32N 43°20' E 004°12'4 4.0
2015-Jan-23 03:25N 43°22' E 004°07'5 6.4
2015-Jan-23 02:33N 43°28' E 004°06'2 0.2
2015-Jan-22 15:22N 43°27' E 004°09'7 7.6
2015-Jan-22 14:28N 43°21' E 004°13'7 3.8
2015-Jan-22 12:33N 43°17' E 004°22'5 3.7
2015-Jan-22 11:11N 43°15' E 004°28'2 2.7
2015-Jan-22 10:25N 43°13' E 004°29'3 3.0
2015-Jan-22 09:32N 43°13' E 004°33'4 2.9
2015-Jan-22 08:05N 43°17' E 004°30'2 2.5
2015-Jan-22 07:23N 43°17' E 004°28'3 3.9
2015-Jan-22 06:33N 43°17' E 004°23'5 4.2
2015-Jan-22 05:18N 43°19' E 004°17'3 4.0
2015-Jan-22 04:26N 43°20' E 004°13'3 3.9
2015-Jan-22 03:33N 43°22' E 004°08'6 6.2
2015-Jan-22 02:33N 43°28' E 004°06'5 0.4
2015-Jan-21 15:04N 43°24' E 004°10'4 6.1
2015-Jan-21 14:21N 43°21' E 004°14'4 4.0
2015-Jan-21 13:22N 43°18' E 004°17'3 4.0
2015-Jan-21 12:34N 43°17' E 004°22'5 4.1
2015-Jan-21 11:27N 43°14' E 004°27'3 3.0
2015-Jan-21 10:33N 43°12' E 004°29'4 3.2
2015-Jan-21 09:19N 43°15' E 004°33'3 3.3
2015-Jan-21 08:24N 43°17' E 004°30'3 2.8
2015-Jan-21 07:16N 43°17' E 004°26'4 4.4
2015-Jan-21 06:18N 43°17' E 004°20'19 1.1
2015-Jan-20 12:30N 43°26' E 003°56'8 8.2
2015-Jan-20 11:33N 43°22' E 003°47'2 1.9
2015-Jan-20 10:17N 43°24' E 003°50'3 4.2
2015-Jan-20 09:33N 43°26' E 003°53'3 2.4
2015-Jan-20 08:09N 43°25' E 003°57'2 2.3
2015-Jan-20 07:15N 43°26' E 003°55'4 3.5
2015-Jan-20 06:05N 43°23' E 003°51'16 1.2
2015-Jan-19 17:21N 43°32' E 004°08'0 0.0
2015-Jan-19 16:23N 43°32' E 004°08'  

Dump ship's entire track history